Time;durP1;ratioP1;P1;durP2;ratioP2;P2;SDS_P1;SDS_P2;PMS_P1;PMS_P2;Temp;Humidity;BMP_temperature;BMP_pressure;BME280_temperature;BME280_humidity;BME280_pressure;Samples;Min_cycle;Max_cycle;Signal;HPM_P1;HPM_P2
2023/03/08 00:01:54;;;;;;;5.53;3.45;;;;;;;;;;5064585;28;20420;-83
2023/03/08 00:04:20;;;;;;;6.18;3.50;;;;;;;;;;5066616;28;20415;-82
2023/03/08 00:06:47;;;;;;;6.43;3.10;;;;;;;;;;5068442;28;20421;-83
2023/03/08 00:09:13;;;;;;;5.10;3.72;;;;;;;;;;5065949;28;20971;-83
2023/03/08 00:11:39;;;;;;;6.13;3.80;;;;;;;;;;5067909;28;20428;-83
2023/03/08 00:14:06;;;;;;;6.80;4.07;;;;;;;;;;5068539;28;20428;-82
2023/03/08 00:16:34;;;;;;;5.70;3.40;;;;;;;;;;5067430;28;20433;-82
2023/03/08 00:19:00;;;;;;;5.00;3.55;;;;;;;;;;5066340;28;20430;-83
2023/03/08 00:21:27;;;;;;;5.05;3.75;;;;;;;;;;5065385;28;20723;-82
2023/03/08 00:23:53;;;;;;;8.25;4.35;;;;;;;;;;5068784;28;20425;-82
2023/03/08 00:26:20;;;;;;;7.93;4.15;;;;;;;;;;5064780;28;20422;-82
2023/03/08 00:28:46;;;;;;;7.30;4.47;;;;;;;;;;5066052;28;20415;-81
2023/03/08 00:31:13;;;;;;;8.55;4.90;;;;;;;;;;5064575;28;20424;-82
2023/03/08 00:33:41;;;;;;;8.70;4.90;;;;;;;;;;5066931;28;20427;-83
2023/03/08 00:36:09;;;;;;;7.27;4.10;;;;;;;;;;5066082;28;20427;-83
2023/03/08 00:38:36;;;;;;;8.05;4.70;;;;;;;;;;5065380;28;20922;-82
2023/03/08 00:41:03;;;;;;;7.55;4.50;;;;;;;;;;5065461;28;20424;-82
2023/03/08 00:43:29;;;;;;;9.70;4.40;;;;;;;;;;5049444;28;20495;-82
2023/03/08 00:45:57;;;;;;;8.85;4.65;;;;;;;;;;5065100;28;20936;-82
2023/03/08 00:48:23;;;;;;;7.43;4.82;;;;;;;;;;5066740;28;20433;-83
2023/03/08 00:50:51;;;;;;;8.40;5.22;;;;;;;;;;5065742;28;20513;-83
2023/03/08 00:53:18;;;;;;;8.70;4.90;;;;;;;;;;5069196;28;20435;-82
2023/03/08 00:55:48;;;;;;;8.52;4.80;;;;;;;;;;5066988;28;20416;-82
2023/03/08 00:58:14;;;;;;;8.15;4.53;;;;;;;;;;5064580;28;20437;-82
2023/03/08 01:00:40;;;;;;;7.93;4.50;;;;;;;;;;5064522;28;20434;-82
2023/03/08 01:03:07;;;;;;;8.00;4.57;;;;;;;;;;5064241;28;20437;-82
2023/03/08 01:05:34;;;;;;;7.78;4.55;;;;;;;;;;5060690;28;20438;-82
2023/03/08 01:08:04;;;;;;;9.48;4.47;;;;;;;;;;5065698;28;20436;-82
2023/03/08 01:10:30;;;;;;;7.13;4.80;;;;;;;;;;5067217;28;20507;-82
2023/03/08 01:12:57;;;;;;;10.43;5.70;;;;;;;;;;5063951;28;20427;-82
2023/03/08 01:15:24;;;;;;;9.70;6.15;;;;;;;;;;5062681;28;20418;-82
2023/03/08 01:17:51;;;;;;;11.20;5.65;;;;;;;;;;5064607;28;20433;-82
2023/03/08 01:20:17;;;;;;;8.63;4.83;;;;;;;;;;5061912;28;20417;-82
2023/03/08 01:22:44;;;;;;;7.57;4.80;;;;;;;;;;5064584;28;20881;-82
2023/03/08 01:25:11;;;;;;;8.07;4.70;;;;;;;;;;5065383;28;21091;-83
2023/03/08 01:27:38;;;;;;;8.00;4.50;;;;;;;;;;5070357;28;20430;-82
2023/03/08 01:30:04;;;;;;;7.03;4.55;;;;;;;;;;5066585;28;20407;-82
2023/03/08 01:32:31;;;;;;;10.60;4.90;;;;;;;;;;5066373;28;20415;-82
2023/03/08 01:35:03;;;;;;;9.30;5.18;;;;;;;;;;5064479;28;20789;-82
2023/03/08 01:37:29;;;;;;;5.80;5.10;;;;;;;;;;5066324;28;20469;-82
2023/03/08 01:39:55;;;;;;;10.80;4.72;;;;;;;;;;5064700;28;20416;-82
2023/03/08 01:42:24;;;;;;;7.47;4.63;;;;;;;;;;5067771;28;20433;-82
2023/03/08 01:44:51;;;;;;;8.57;5.10;;;;;;;;;;5068937;28;20460;-82
2023/03/08 01:47:18;;;;;;;8.15;4.50;;;;;;;;;;5069651;28;20823;-82
2023/03/08 01:49:45;;;;;;;6.10;4.43;;;;;;;;;;5065861;28;20434;-82
2023/03/08 01:52:13;;;;;;;6.40;4.57;;;;;;;;;;5068840;28;20429;-82
2023/03/08 01:54:41;;;;;;;9.75;5.68;;;;;;;;;;5070631;28;20431;-82
2023/03/08 01:57:11;;;;;;;6.60;4.60;;;;;;;;;;5071170;28;20424;-84
2023/03/08 01:59:39;;;;;;;8.87;5.17;;;;;;;;;;5075595;28;20922;-84
2023/03/08 02:02:06;;;;;;;7.05;4.70;;;;;;;;;;5075840;28;20412;-84
2023/03/08 02:04:34;;;;;;;6.78;4.70;;;;;;;;;;5077276;28;20476;-84
2023/03/08 02:07:01;;;;;;;6.50;4.30;;;;;;;;;;5073040;28;21023;-84
2023/03/08 02:09:27;;;;;;;4.47;3.92;;;;;;;;;;5070073;28;20519;-82
2023/03/08 02:11:55;;;;;;;6.47;3.80;;;;;;;;;;5048732;28;20927;-82
2023/03/08 02:14:21;;;;;;;5.97;4.20;;;;;;;;;;5045307;28;20417;-82
2023/03/08 02:16:49;;;;;;;4.40;4.00;;;;;;;;;;5068530;28;20420;-82
2023/03/08 02:19:20;;;;;;;5.97;4.28;;;;;;;;;;5069553;28;20432;-82
2023/03/08 02:21:46;;;;;;;5.75;4.00;;;;;;;;;;5065931;28;20444;-82
2023/03/08 02:24:19;;;;;;;6.05;3.80;;;;;;;;;;5070537;28;20428;-83
2023/03/08 02:26:46;;;;;;;5.00;3.88;;;;;;;;;;5068753;28;20421;-82
2023/03/08 02:29:13;;;;;;;4.55;3.90;;;;;;;;;;5067909;28;20436;-82
2023/03/08 02:31:40;;;;;;;6.05;4.70;;;;;;;;;;5071054;28;20419;-82
2023/03/08 02:34:06;;;;;;;7.13;4.30;;;;;;;;;;5066471;28;20428;-82
2023/03/08 02:36:32;;;;;;;9.07;5.80;;;;;;;;;;5069512;28;20423;-83
2023/03/08 02:39:00;;;;;;;8.88;5.65;;;;;;;;;;5071059;28;20430;-82
2023/03/08 02:41:28;;;;;;;9.15;5.28;;;;;;;;;;5067190;28;20791;-82
2023/03/08 02:43:55;;;;;;;9.80;5.20;;;;;;;;;;5069790;28;20924;-82
2023/03/08 02:46:21;;;;;;;6.65;4.60;;;;;;;;;;5068724;28;20425;-82
2023/03/08 02:48:49;;;;;;;7.05;4.95;;;;;;;;;;5066099;28;20430;-82
2023/03/08 02:51:15;;;;;;;7.07;5.38;;;;;;;;;;5070355;28;20502;-82
2023/03/08 02:53:42;;;;;;;11.82;6.53;;;;;;;;;;5071515;28;20446;-83
2023/03/08 02:56:08;;;;;;;8.90;5.83;;;;;;;;;;5065871;28;20456;-82
2023/03/08 02:58:36;;;;;;;9.17;6.43;;;;;;;;;;5064110;28;20501;-82
2023/03/08 03:01:03;;;;;;;7.50;5.90;;;;;;;;;;5065412;28;20409;-82
2023/03/08 03:03:30;;;;;;;7.00;5.80;;;;;;;;;;5065888;28;20490;-82
2023/03/08 03:05:56;;;;;;;6.78;5.38;;;;;;;;;;5067730;28;20438;-82
2023/03/08 03:08:23;;;;;;;9.38;6.05;;;;;;;;;;5066986;28;20427;-82
2023/03/08 03:10:49;;;;;;;8.10;5.60;;;;;;;;;;5065452;28;20420;-83
2023/03/08 03:13:15;;;;;;;7.53;4.90;;;;;;;;;;5066200;28;20431;-82
2023/03/08 03:15:43;;;;;;;8.13;5.63;;;;;;;;;;5069472;28;20932;-80
2023/03/08 03:18:09;;;;;;;7.40;5.22;;;;;;;;;;5069695;28;20454;-83
2023/03/08 03:20:36;;;;;;;8.52;5.80;;;;;;;;;;5068993;28;20416;-82
2023/03/08 03:23:03;;;;;;;8.32;5.95;;;;;;;;;;5069309;28;20438;-83
2023/03/08 03:25:29;;;;;;;8.80;5.68;;;;;;;;;;5066769;28;20980;-80
2023/03/08 03:27:57;;;;;;;8.27;5.88;;;;;;;;;;5070229;28;20427;-83
2023/03/08 03:30:23;;;;;;;6.53;5.60;;;;;;;;;;5067125;28;20432;-82
2023/03/08 03:32:51;;;;;;;6.00;4.90;;;;;;;;;;5065507;28;20922;-82
2023/03/08 03:35:17;;;;;;;7.40;5.93;;;;;;;;;;5065692;28;20409;-80
2023/03/08 03:37:45;;;;;;;7.10;5.60;;;;;;;;;;5070666;28;20407;-81
2023/03/08 03:40:13;;;;;;;8.00;5.97;;;;;;;;;;5067444;28;20459;-81
2023/03/08 03:42:39;;;;;;;7.40;5.00;;;;;;;;;;5066843;28;20485;-82
2023/03/08 03:45:06;;;;;;;6.85;6.10;;;;;;;;;;5067302;28;21130;-80
2023/03/08 03:47:33;;;;;;;10.45;6.38;;;;;;;;;;5068030;28;20433;-82
2023/03/08 03:50:00;;;;;;;7.63;6.82;;;;;;;;;;5065711;28;20467;-82
2023/03/08 03:52:27;;;;;;;7.00;5.57;;;;;;;;;;5068508;28;20425;-82
2023/03/08 03:54:53;;;;;;;8.15;6.90;;;;;;;;;;5063893;28;20418;-82
2023/03/08 03:57:19;;;;;;;8.13;6.50;;;;;;;;;;5069876;28;20421;-82
2023/03/08 03:59:46;;;;;;;10.27;6.97;;;;;;;;;;5065597;28;20409;-83
2023/03/08 04:02:12;;;;;;;12.00;7.20;;;;;;;;;;5070809;28;20415;-82
2023/03/08 04:04:39;;;;;;;10.77;7.50;;;;;;;;;;5068872;28;20424;-81
2023/03/08 04:07:06;;;;;;;9.23;7.00;;;;;;;;;;5069323;28;20414;-81
2023/03/08 04:09:33;;;;;;;8.63;7.70;;;;;;;;;;5066753;28;20427;-84
2023/03/08 04:12:01;;;;;;;9.02;6.90;;;;;;;;;;5072172;28;20450;-81
2023/03/08 04:14:27;;;;;;;12.30;8.30;;;;;;;;;;5070478;28;20425;-81
2023/03/08 04:16:54;;;;;;;11.07;8.02;;;;;;;;;;5068164;28;20428;-83
2023/03/08 04:19:21;;;;;;;15.55;9.32;;;;;;;;;;5061837;28;20427;-82
2023/03/08 04:21:47;;;;;;;14.45;8.68;;;;;;;;;;5065344;28;20422;-83
2023/03/08 04:24:16;;;;;;;12.80;8.82;;;;;;;;;;5063994;28;20475;-82
2023/03/08 04:26:42;;;;;;;11.70;8.57;;;;;;;;;;5068151;28;20424;-82
2023/03/08 04:29:09;;;;;;;13.23;9.52;;;;;;;;;;5064727;28;20421;-80
2023/03/08 04:31:35;;;;;;;12.23;8.90;;;;;;;;;;5068736;28;20447;-83
2023/03/08 04:34:02;;;;;;;11.60;8.35;;;;;;;;;;5066483;28;20512;-82
2023/03/08 04:36:29;;;;;;;14.55;9.52;;;;;;;;;;5068676;28;20421;-82
2023/03/08 04:38:55;;;;;;;14.10;9.05;;;;;;;;;;5061824;28;20423;-81
2023/03/08 04:41:23;;;;;;;13.25;9.50;;;;;;;;;;5057395;28;20427;-82
2023/03/08 04:43:50;;;;;;;13.00;9.27;;;;;;;;;;5067102;28;20409;-83
2023/03/08 04:46:18;;;;;;;13.30;9.50;;;;;;;;;;5065846;28;20450;-83
2023/03/08 04:48:45;;;;;;;13.45;9.80;;;;;;;;;;5066233;28;20422;-83
2023/03/08 04:51:11;;;;;;;16.63;10.53;;;;;;;;;;5066374;28;20414;-83
2023/03/08 04:53:40;;;;;;;14.98;10.43;;;;;;;;;;5062250;28;20783;-83
2023/03/08 04:56:07;;;;;;;15.48;10.60;;;;;;;;;;5067312;28;20432;-83
2023/03/08 04:58:35;;;;;;;14.60;10.75;;;;;;;;;;5069696;28;20422;-84
2023/03/08 05:01:07;;;;;;;15.95;11.15;;;;;;;;;;5068328;28;20416;-83
2023/03/08 05:03:34;;;;;;;17.17;11.43;;;;;;;;;;5066658;28;20429;-83
2023/03/08 05:06:00;;;;;;;19.35;11.93;;;;;;;;;;5065387;28;20417;-83
2023/03/08 05:08:27;;;;;;;21.97;13.20;;;;;;;;;;5067214;28;20445;-84
2023/03/08 05:10:56;;;;;;;18.25;12.80;;;;;;;;;;5065699;28;20421;-81
2023/03/08 05:13:22;;;;;;;18.48;11.45;;;;;;;;;;5069223;28;20433;-82
2023/03/08 05:15:53;;;;;;;17.65;11.80;;;;;;;;;;5067207;28;20427;-82
2023/03/08 05:18:19;;;;;;;17.53;12.90;;;;;;;;;;5069466;28;20588;-82
2023/03/08 05:20:52;;;;;;;19.25;13.15;;;;;;;;;;5070158;28;20413;-83
2023/03/08 05:23:20;;;;;;;19.30;13.55;;;;;;;;;;5066881;28;20434;-84
2023/03/08 05:25:46;;;;;;;18.10;13.75;;;;;;;;;;5071910;28;20421;-82
2023/03/08 05:28:14;;;;;;;20.25;14.43;;;;;;;;;;5072754;28;20425;-82
2023/03/08 05:30:41;;;;;;;21.38;13.95;;;;;;;;;;5069699;28;20435;-81
2023/03/08 05:33:10;;;;;;;19.73;14.27;;;;;;;;;;5073894;28;20434;-80
2023/03/08 05:35:37;;;;;;;22.80;14.50;;;;;;;;;;5067001;28;20429;-81
2023/03/08 05:38:03;;;;;;;21.50;14.27;;;;;;;;;;5064815;28;20456;-82
2023/03/08 05:40:30;;;;;;;19.83;14.00;;;;;;;;;;5064219;28;20431;-81
2023/03/08 05:42:56;;;;;;;20.27;14.80;;;;;;;;;;5068291;28;20425;-81
2023/03/08 05:45:23;;;;;;;22.48;14.30;;;;;;;;;;5065828;28;20812;-81
2023/03/08 05:47:49;;;;;;;21.83;15.48;;;;;;;;;;5065556;28;20429;-83
2023/03/08 05:50:18;;;;;;;23.13;15.70;;;;;;;;;;5064636;28;20921;-81
2023/03/08 05:52:46;;;;;;;24.30;15.55;;;;;;;;;;5063493;28;20446;-81
2023/03/08 05:55:12;;;;;;;22.13;15.70;;;;;;;;;;5070618;28;20413;-80
2023/03/08 05:57:39;;;;;;;26.60;16.80;;;;;;;;;;5065720;28;20471;-81
2023/03/08 06:00:06;;;;;;;25.00;16.60;;;;;;;;;;5057958;28;20478;-81
2023/03/08 06:02:33;;;;;;;21.55;15.70;;;;;;;;;;5042801;28;20428;-80
2023/03/08 06:04:59;;;;;;;23.08;16.25;;;;;;;;;;5044299;28;20410;-80
2023/03/08 06:07:27;;;;;;;24.63;16.95;;;;;;;;;;5043420;28;20433;-80
2023/03/08 06:09:54;;;;;;;24.58;16.90;;;;;;;;;;5046476;28;20423;-81
2023/03/08 06:12:21;;;;;;;22.02;16.17;;;;;;;;;;5068327;28;20467;-82
2023/03/08 06:14:47;;;;;;;27.20;17.25;;;;;;;;;;5064412;28;20437;-81
2023/03/08 06:17:13;;;;;;;22.42;16.92;;;;;;;;;;5067952;28;20425;-79
2023/03/08 06:19:40;;;;;;;30.17;18.00;;;;;;;;;;5061475;28;20431;-80
2023/03/08 06:22:06;;;;;;;27.75;19.02;;;;;;;;;;5066422;28;20898;-80
2023/03/08 06:24:34;;;;;;;27.38;17.67;;;;;;;;;;5062966;28;21364;-79
2023/03/08 06:27:00;;;;;;;30.38;19.27;;;;;;;;;;5067200;28;20797;-80
2023/03/08 06:29:27;;;;;;;29.08;19.95;;;;;;;;;;5062067;28;20429;-79
2023/03/08 06:31:54;;;;;;;28.63;18.70;;;;;;;;;;5066697;28;20419;-80
2023/03/08 06:34:20;;;;;;;28.77;19.95;;;;;;;;;;5069543;28;20791;-80
2023/03/08 06:36:46;;;;;;;33.08;21.30;;;;;;;;;;5071590;28;20935;-79
2023/03/08 06:39:13;;;;;;;33.63;22.20;;;;;;;;;;5072020;28;20438;-80
2023/03/08 06:41:41;;;;;;;34.47;22.58;;;;;;;;;;5069738;28;20426;-80
2023/03/08 06:44:08;;;;;;;38.22;24.77;;;;;;;;;;5070080;28;20456;-79
2023/03/08 06:46:34;;;;;;;35.75;23.17;;;;;;;;;;5072477;28;20419;-79
2023/03/08 06:49:03;;;;;;;36.20;24.77;;;;;;;;;;5070022;28;20434;-80
2023/03/08 06:51:29;;;;;;;39.90;24.80;;;;;;;;;;5064290;28;20452;-80
2023/03/08 06:53:55;;;;;;;38.63;25.30;;;;;;;;;;5072558;28;20479;-79
2023/03/08 06:56:22;;;;;;;39.47;25.05;;;;;;;;;;5072666;28;20426;-79
2023/03/08 06:58:50;;;;;;;41.50;25.80;;;;;;;;;;5074680;28;20433;-80
2023/03/08 07:01:16;;;;;;;40.97;25.45;;;;;;;;;;5069489;28;20410;-81
2023/03/08 07:03:44;;;;;;;42.40;25.70;;;;;;;;;;5070868;28;20432;-79
2023/03/08 07:06:12;;;;;;;40.47;25.33;;;;;;;;;;5074130;28;20420;-80
2023/03/08 07:08:38;;;;;;;46.95;26.63;;;;;;;;;;5071344;28;20431;-81
2023/03/08 07:11:05;;;;;;;42.78;27.27;;;;;;;;;;5069809;28;20420;-79
2023/03/08 07:13:32;;;;;;;43.75;28.27;;;;;;;;;;5052295;28;20901;-80
2023/03/08 07:16:05;;;;;;;43.10;26.10;;;;;;;;;;5070556;28;20427;-81
2023/03/08 07:18:31;;;;;;;45.72;29.05;;;;;;;;;;5070322;28;20450;-80
2023/03/08 07:20:58;;;;;;;45.95;28.15;;;;;;;;;;5070541;28;20422;-82
2023/03/08 07:23:24;;;;;;;49.22;29.38;;;;;;;;;;5069035;28;20850;-80
2023/03/08 07:25:51;;;;;;;51.95;30.00;;;;;;;;;;5072069;28;20416;-79
2023/03/08 07:28:18;;;;;;;50.08;29.30;;;;;;;;;;5069020;28;20498;-80
2023/03/08 07:30:46;;;;;;;51.28;30.20;;;;;;;;;;5069997;28;20421;-79
2023/03/08 07:33:14;;;;;;;51.08;29.92;;;;;;;;;;5072091;28;20446;-82
2023/03/08 07:35:40;;;;;;;46.03;26.52;;;;;;;;;;5068713;28;20413;-81
2023/03/08 07:38:07;;;;;;;44.42;27.20;;;;;;;;;;5070412;28;20419;-81
2023/03/08 07:40:33;;;;;;;40.92;27.08;;;;;;;;;;5069553;28;20419;-81
2023/03/08 07:42:59;;;;;;;41.97;25.80;;;;;;;;;;5070460;28;20431;-82
2023/03/08 07:45:26;;;;;;;42.88;26.85;;;;;;;;;;5070802;28;20421;-81
2023/03/08 07:47:53;;;;;;;41.33;25.05;;;;;;;;;;5072706;28;20447;-82
2023/03/08 07:50:21;;;;;;;45.15;26.60;;;;;;;;;;5070250;28;20409;-82
2023/03/08 07:52:47;;;;;;;43.78;26.05;;;;;;;;;;5071104;28;20458;-81
2023/03/08 07:55:14;;;;;;;40.75;26.70;;;;;;;;;;5067611;28;20414;-81
2023/03/08 07:57:41;;;;;;;45.35;27.35;;;;;;;;;;5065970;28;20416;-81
2023/03/08 08:00:09;;;;;;;47.92;27.23;;;;;;;;;;5062372;28;20425;-81
2023/03/08 08:02:36;;;;;;;44.58;26.25;;;;;;;;;;5068060;28;20413;-81
2023/03/08 08:05:02;;;;;;;48.55;28.13;;;;;;;;;;5063566;28;20422;-81
2023/03/08 08:07:31;;;;;;;53.60;30.25;;;;;;;;;;5064905;28;20419;-81
2023/03/08 08:09:57;;;;;;;51.97;30.20;;;;;;;;;;5063117;28;20421;-81
2023/03/08 08:12:23;;;;;;;54.50;30.02;;;;;;;;;;5063871;28;20448;-81
2023/03/08 08:14:51;;;;;;;49.03;29.20;;;;;;;;;;5065578;28;20409;-81
2023/03/08 08:17:18;;;;;;;47.65;29.60;;;;;;;;;;5066401;28;20433;-81
2023/03/08 08:19:44;;;;;;;52.85;29.77;;;;;;;;;;5066115;28;20407;-81
2023/03/08 08:22:10;;;;;;;46.83;28.35;;;;;;;;;;5048803;28;20418;-81
2023/03/08 08:24:38;;;;;;;46.50;28.70;;;;;;;;;;5064158;28;20447;-81
2023/03/08 08:27:05;;;;;;;48.63;29.75;;;;;;;;;;5065826;28;20423;-81
2023/03/08 08:29:31;;;;;;;52.97;30.85;;;;;;;;;;5071730;28;20426;-81
2023/03/08 08:31:58;;;;;;;53.28;30.27;;;;;;;;;;5065513;28;20441;-81
2023/03/08 08:34:24;;;;;;;51.00;30.58;;;;;;;;;;5066747;28;20437;-81
2023/03/08 08:36:51;;;;;;;52.95;30.35;;;;;;;;;;5061888;28;20417;-81
2023/03/08 08:39:17;;;;;;;52.67;29.90;;;;;;;;;;5062352;28;20412;-82
2023/03/08 08:41:45;;;;;;;45.05;26.85;;;;;;;;;;5061572;28;20808;-81
2023/03/08 08:44:12;;;;;;;46.17;28.17;;;;;;;;;;5065182;28;20874;-81
2023/03/08 08:46:38;;;;;;;45.03;27.70;;;;;;;;;;5067025;28;20411;-81
2023/03/08 08:49:05;;;;;;;45.47;28.10;;;;;;;;;;5069447;28;20446;-81
2023/03/08 08:51:32;;;;;;;43.60;26.17;;;;;;;;;;5066456;28;20418;-82
2023/03/08 08:53:58;;;;;;;43.95;25.38;;;;;;;;;;5061861;28;20431;-81
2023/03/08 08:56:26;;;;;;;40.78;25.30;;;;;;;;;;5065739;28;20429;-82
2023/03/08 08:58:53;;;;;;;43.50;27.50;;;;;;;;;;5067989;28;20903;-81
2023/03/08 09:01:21;;;;;;;48.15;27.10;;;;;;;;;;5066020;28;20417;-81
2023/03/08 09:03:48;;;;;;;43.47;26.15;;;;;;;;;;5048016;28;20554;-81
2023/03/08 09:06:16;;;;;;;40.10;23.35;;;;;;;;;;5062057;28;20935;-81
2023/03/08 09:08:44;;;;;;;48.20;27.25;;;;;;;;;;5066796;28;20934;-81
2023/03/08 09:11:10;;;;;;;43.63;25.60;;;;;;;;;;5064931;28;20768;-81
2023/03/08 09:13:40;;;;;;;45.15;26.60;;;;;;;;;;5065278;28;20419;-82
2023/03/08 09:16:16;;;;;;;41.17;25.17;;;;;;;;;;5066168;28;20418;-81
2023/03/08 09:18:43;;;;;;;40.88;25.23;;;;;;;;;;5066403;28;20428;-82
2023/03/08 09:21:10;;;;;;;42.88;25.77;;;;;;;;;;5067290;28;20430;-81
2023/03/08 09:23:36;;;;;;;39.65;25.10;;;;;;;;;;5064362;28;20412;-81
2023/03/08 09:26:04;;;;;;;36.80;23.52;;;;;;;;;;5066669;28;20422;-82
2023/03/08 09:28:31;;;;;;;41.08;24.92;;;;;;;;;;5068491;28;20411;-81
2023/03/08 09:30:57;;;;;;;36.30;22.35;;;;;;;;;;5064973;28;20442;-81
2023/03/08 09:33:25;;;;;;;36.95;23.23;;;;;;;;;;5063115;28;20412;-81
2023/03/08 09:35:55;;;;;;;35.53;21.80;;;;;;;;;;5066070;28;20444;-81
2023/03/08 09:38:21;;;;;;;33.80;21.30;;;;;;;;;;5065280;28;20417;-81
2023/03/08 09:40:53;;;;;;;32.23;21.73;;;;;;;;;;5065076;28;20431;-81
2023/03/08 09:43:25;;;;;;;41.72;21.90;;;;;;;;;;5063868;28;20426;-81
2023/03/08 09:45:53;;;;;;;34.88;22.13;;;;;;;;;;5067795;28;20420;-81
2023/03/08 09:48:22;;;;;;;35.35;21.92;;;;;;;;;;5061850;28;20471;-81
2023/03/08 09:50:51;;;;;;;36.63;21.88;;;;;;;;;;5065039;28;20428;-81
2023/03/08 09:53:21;;;;;;;33.00;21.27;;;;;;;;;;5064868;28;20418;-81
2023/03/08 09:55:49;;;;;;;35.50;21.52;;;;;;;;;;5064386;28;20436;-81
2023/03/08 09:58:20;;;;;;;36.30;21.73;;;;;;;;;;5061952;28;20430;-81
2023/03/08 10:00:46;;;;;;;30.25;19.90;;;;;;;;;;5064329;28;20436;-81
2023/03/08 10:03:36;;;;;;;33.53;19.73;;;;;;;;;;5064431;28;20409;-81
2023/03/08 10:06:07;;;;;;;36.00;24.95;;;;;;;;;;5063441;28;20790;-82
2023/03/08 10:08:36;;;;;;;31.00;20.23;;;;;;;;;;5070485;28;20419;-82
2023/03/08 10:11:06;;;;;;;31.83;20.13;;;;;;;;;;5048992;28;20421;-81
2023/03/08 10:13:33;;;;;;;29.98;20.58;;;;;;;;;;5067224;28;20930;-82
2023/03/08 10:16:04;;;;;;;27.90;18.90;;;;;;;;;;5062414;28;20417;-81
2023/03/08 10:18:35;;;;;;;30.13;16.95;;;;;;;;;;5064230;28;20424;-82
2023/03/08 10:21:02;;;;;;;26.60;18.23;;;;;;;;;;5066877;28;20431;-81
2023/03/08 10:23:31;;;;;;;24.98;16.45;;;;;;;;;;5068557;28;20788;-81
2023/03/08 10:25:57;;;;;;;25.33;16.23;;;;;;;;;;5064827;28;20431;-81
2023/03/08 10:28:25;;;;;;;24.90;17.27;;;;;;;;;;5064451;28;20432;-81
2023/03/08 10:30:53;;;;;;;23.88;16.38;;;;;;;;;;5065116;28;20435;-81
2023/03/08 10:33:20;;;;;;;24.25;15.90;;;;;;;;;;5067738;28;20409;-81
2023/03/08 10:35:53;;;;;;;26.60;17.25;;;;;;;;;;5066068;28;20432;-81
2023/03/08 10:38:20;;;;;;;28.63;16.65;;;;;;;;;;5067016;28;20504;-81
2023/03/08 10:40:48;;;;;;;22.65;15.00;;;;;;;;;;5068590;28;20413;-81
2023/03/08 10:43:19;;;;;;;22.85;14.07;;;;;;;;;;5064818;28;20460;-82
2023/03/08 10:45:45;;;;;;;22.17;15.30;;;;;;;;;;5067447;28;20440;-82
2023/03/08 10:48:17;;;;;;;22.08;14.90;;;;;;;;;;5067376;28;20949;-81
2023/03/08 10:50:44;;;;;;;22.85;15.95;;;;;;;;;;5065480;28;20418;-81
2023/03/08 10:53:15;;;;;;;23.63;14.90;;;;;;;;;;5064011;28;20776;-81
2023/03/08 10:55:43;;;;;;;29.83;16.73;;;;;;;;;;5068411;28;20429;-81
2023/03/08 10:58:25;;;;;;;21.00;14.60;;;;;;;;;;5064130;28;20427;-81
2023/03/08 11:00:53;;;;;;;19.90;13.30;;;;;;;;;;5068458;28;20417;-81
2023/03/08 11:03:20;;;;;;;20.63;12.63;;;;;;;;;;5067256;28;20417;-81
2023/03/08 11:05:51;;;;;;;19.90;13.50;;;;;;;;;;5066164;28;20790;-81
2023/03/08 11:08:20;;;;;;;18.30;13.02;;;;;;;;;;5061122;28;20428;-81
2023/03/08 11:10:46;;;;;;;18.47;12.40;;;;;;;;;;5062644;28;20403;-81
2023/03/08 11:13:20;;;;;;;18.60;13.13;;;;;;;;;;5064547;28;20422;-81
2023/03/08 11:15:49;;;;;;;16.23;12.23;;;;;;;;;;5068033;28;20916;-81
2023/03/08 11:18:22;;;;;;;21.00;13.73;;;;;;;;;;5061679;28;20424;-81
2023/03/08 11:20:51;;;;;;;21.42;14.55;;;;;;;;;;5065308;28;20422;-81
2023/03/08 11:23:22;;;;;;;28.20;17.17;;;;;;;;;;5064471;28;20415;-80
2023/03/08 11:25:54;;;;;;;27.23;19.88;;;;;;;;;;5066133;28;20798;-81
2023/03/08 11:28:39;;;;;;;32.33;21.13;;;;;;;;;;5066129;28;20921;-79
2023/03/08 11:31:13;;;;;;;34.37;22.40;;;;;;;;;;5065368;28;20421;-81
2023/03/08 11:33:55;;;;;;;35.35;23.98;;;;;;;;;;5064222;28;20443;-81
2023/03/08 11:36:24;;;;;;;50.15;33.90;;;;;;;;;;5064505;28;20508;-79
2023/03/08 11:38:53;;;;;;;57.75;36.80;;;;;;;;;;5065792;28;20428;-79
2023/03/08 11:41:23;;;;;;;54.30;36.28;;;;;;;;;;5067703;28;20438;-80
2023/03/08 11:44:00;;;;;;;63.63;42.03;;;;;;;;;;5064967;28;20416;-80
2023/03/08 11:46:29;;;;;;;61.80;39.30;;;;;;;;;;5063173;28;20435;-80
2023/03/08 11:49:03;;;;;;;61.22;39.47;;;;;;;;;;5066491;28;20443;-80
2023/03/08 11:51:31;;;;;;;64.10;41.17;;;;;;;;;;5064586;28;21095;-79
2023/03/08 11:54:04;;;;;;;48.60;33.15;;;;;;;;;;5063474;28;20427;-79
2023/03/08 11:56:42;;;;;;;70.47;41.28;;;;;;;;;;5061121;28;20441;-79
2023/03/08 11:59:11;;;;;;;62.30;41.47;;;;;;;;;;5064619;28;20446;-81
2023/03/08 12:01:42;;;;;;;67.20;42.28;;;;;;;;;;5061407;28;20419;-81
2023/03/08 12:04:11;;;;;;;58.50;39.05;;;;;;;;;;5065651;28;20415;-81
2023/03/08 12:06:39;;;;;;;50.50;33.13;;;;;;;;;;5058661;28;20944;-81
2023/03/08 12:09:08;;;;;;;51.35;34.70;;;;;;;;;;5064419;28;20802;-80
2023/03/08 12:11:37;;;;;;;57.28;37.13;;;;;;;;;;5059705;28;20424;-80
2023/03/08 12:14:06;;;;;;;44.40;28.60;;;;;;;;;;5060699;28;20429;-81
2023/03/08 12:16:38;;;;;;;44.78;29.20;;;;;;;;;;5063953;28;20422;-81
2023/03/08 12:19:11;;;;;;;44.17;30.20;;;;;;;;;;5062317;28;20413;-81
2023/03/08 12:21:40;;;;;;;45.47;32.22;;;;;;;;;;5064777;28;20414;-81
2023/03/08 12:24:16;;;;;;;41.15;28.50;;;;;;;;;;5067523;28;20805;-81
2023/03/08 12:26:44;;;;;;;36.30;24.55;;;;;;;;;;5061937;28;20447;-81
2023/03/08 12:29:12;;;;;;;32.97;23.00;;;;;;;;;;5062180;28;20428;-81
2023/03/08 12:31:41;;;;;;;28.63;20.17;;;;;;;;;;5062673;28;20779;-81
2023/03/08 12:34:14;;;;;;;22.70;17.50;;;;;;;;;;5065132;28;20429;-81
2023/03/08 12:36:42;;;;;;;21.38;16.77;;;;;;;;;;5063384;28;20419;-82
2023/03/08 12:39:11;;;;;;;20.42;15.82;;;;;;;;;;5061579;28;20423;-81
2023/03/08 12:41:37;;;;;;;25.88;16.00;;;;;;;;;;5062789;28;20423;-81
2023/03/08 12:44:05;;;;;;;18.65;14.65;;;;;;;;;;5061956;28;20449;-81
2023/03/08 12:46:45;;;;;;;17.48;12.35;;;;;;;;;;5062512;28;20458;-81
2023/03/08 12:49:20;;;;;;;16.27;11.95;;;;;;;;;;5064139;28;20907;-81
2023/03/08 12:51:56;;;;;;;13.40;10.05;;;;;;;;;;5058128;28;20429;-82
2023/03/08 12:54:23;;;;;;;13.85;9.68;;;;;;;;;;5063239;28;20424;-81
2023/03/08 12:56:51;;;;;;;15.55;9.73;;;;;;;;;;5064822;28;20419;-81
2023/03/08 12:59:27;;;;;;;14.60;10.32;;;;;;;;;;5062048;28;20429;-82
2023/03/08 13:02:00;;;;;;;14.17;10.03;;;;;;;;;;5062012;28;20420;-81
2023/03/08 13:04:28;;;;;;;16.60;10.10;;;;;;;;;;5061653;28;20934;-81
2023/03/08 13:07:03;;;;;;;12.60;9.00;;;;;;;;;;5062112;28;20419;-81
2023/03/08 13:09:35;;;;;;;12.27;8.50;;;;;;;;;;5063310;28;21654;-81
2023/03/08 13:12:11;;;;;;;14.32;8.88;;;;;;;;;;5063076;28;20450;-81
2023/03/08 13:14:40;;;;;;;16.00;12.43;;;;;;;;;;5064551;28;20425;-81
2023/03/08 13:17:21;;;;;;;19.67;12.85;;;;;;;;;;5064583;28;20418;-81
2023/03/08 13:19:49;;;;;;;27.58;17.70;;;;;;;;;;5062606;28;20412;-81
2023/03/08 13:22:19;;;;;;;22.60;15.47;;;;;;;;;;5051313;28;20919;-80
2023/03/08 13:24:49;;;;;;;19.60;15.02;;;;;;;;;;5043422;28;20421;-81
2023/03/08 13:27:20;;;;;;;18.83;13.32;;;;;;;;;;5047776;28;20423;-81
2023/03/08 13:29:47;;;;;;;20.17;14.80;;;;;;;;;;5064572;28;20420;-81
2023/03/08 13:32:16;;;;;;;22.17;14.18;;;;;;;;;;5063038;28;20424;-81
2023/03/08 13:34:46;;;;;;;18.67;14.38;;;;;;;;;;5067742;28;20424;-81
2023/03/08 13:37:23;;;;;;;19.98;14.65;;;;;;;;;;5066361;28;20416;-81
2023/03/08 13:39:53;;;;;;;23.00;15.45;;;;;;;;;;5065147;28;20415;-81
2023/03/08 13:42:23;;;;;;;20.55;15.55;;;;;;;;;;5059086;28;20431;-81
2023/03/08 13:44:49;;;;;;;20.33;14.60;;;;;;;;;;5063939;28;20434;-82
2023/03/08 13:47:21;;;;;;;17.40;13.13;;;;;;;;;;5059222;28;20411;-81
2023/03/08 13:49:49;;;;;;;25.83;18.25;;;;;;;;;;5061238;28;20415;-81
2023/03/08 13:52:16;;;;;;;25.20;18.17;;;;;;;;;;5063152;28;20510;-81
2023/03/08 13:54:48;;;;;;;26.65;18.05;;;;;;;;;;5063995;28;20432;-81
2023/03/08 13:57:20;;;;;;;26.57;19.63;;;;;;;;;;5065628;28;20411;-81
2023/03/08 13:59:48;;;;;;;26.42;18.92;;;;;;;;;;5069208;28;20463;-81
2023/03/08 14:02:18;;;;;;;22.50;16.60;;;;;;;;;;5066122;28;20417;-79
2023/03/08 14:04:44;;;;;;;22.20;16.20;;;;;;;;;;5067096;28;20409;-81
2023/03/08 14:07:17;;;;;;;20.40;15.35;;;;;;;;;;5065662;28;20421;-81
2023/03/08 14:09:44;;;;;;;21.83;14.88;;;;;;;;;;5066155;28;20411;-81
2023/03/08 14:12:15;;;;;;;21.38;15.30;;;;;;;;;;5066217;28;20783;-81
2023/03/08 14:14:43;;;;;;;18.02;14.27;;;;;;;;;;5064847;28;20433;-81
2023/03/08 14:17:15;;;;;;;19.00;13.80;;;;;;;;;;5069731;28;20420;-81
2023/03/08 14:19:42;;;;;;;18.17;13.43;;;;;;;;;;5064487;28;20421;-81
2023/03/08 14:22:11;;;;;;;18.38;13.98;;;;;;;;;;5065599;28;20412;-81
2023/03/08 14:24:37;;;;;;;15.43;12.00;;;;;;;;;;5063567;28;20809;-81
2023/03/08 14:27:23;;;;;;;19.60;13.98;;;;;;;;;;5064776;28;20781;-81
2023/03/08 14:30:00;;;;;;;17.30;12.82;;;;;;;;;;5066383;28;20794;-81
2023/03/08 14:32:29;;;;;;;17.25;13.55;;;;;;;;;;5066181;28;20425;-81